sensor_id;sensor_type;location;lat;lon;timestamp;pressure;altitude;pressure_sealevel;temperature;humidity
12626;BME280;6378;42.684;23.372;2023-07-31T00:01:10;94726.78;;;23.09;100.00
12626;BME280;6378;42.684;23.372;2023-07-31T00:03:35;94728.19;;;23.01;100.00
12626;BME280;6378;42.684;23.372;2023-07-31T00:06:01;94728.28;;;22.97;100.00
12626;BME280;6378;42.684;23.372;2023-07-31T00:08:26;94739.56;;;22.86;100.00
12626;BME280;6378;42.684;23.372;2023-07-31T00:10:52;94741.44;;;22.73;100.00
12626;BME280;6378;42.684;23.372;2023-07-31T00:13:18;94741.34;;;22.61;100.00
12626;BME280;6378;42.684;23.372;2023-07-31T00:15:43;94742.72;;;22.36;100.00
12626;BME280;6378;42.684;23.372;2023-07-31T00:18:09;94740.75;;;22.37;100.00
12626;BME280;6378;42.684;23.372;2023-07-31T00:20:34;94739.84;;;22.24;100.00
12626;BME280;6378;42.684;23.372;2023-07-31T00:22:59;94740.28;;;22.38;100.00
12626;BME280;6378;42.684;23.372;2023-07-31T00:25:25;94717.06;;;22.59;100.00
12626;BME280;6378;42.684;23.372;2023-07-31T00:27:50;94720.09;;;23.10;100.00
12626;BME280;6378;42.684;23.372;2023-07-31T00:30:16;94727.56;;;23.09;100.00
12626;BME280;6378;42.684;23.372;2023-07-31T00:32:41;94715.44;;;23.23;100.00
12626;BME280;6378;42.684;23.372;2023-07-31T00:35:07;94711.59;;;23.49;100.00
12626;BME280;6378;42.684;23.372;2023-07-31T00:37:32;94702.03;;;23.66;100.00
12626;BME280;6378;42.684;23.372;2023-07-31T00:39:57;94691.94;;;23.63;100.00
12626;BME280;6378;42.684;23.372;2023-07-31T00:42:24;94682.56;;;23.48;100.00
12626;BME280;6378;42.684;23.372;2023-07-31T00:44:49;94691.41;;;23.68;100.00
12626;BME280;6378;42.684;23.372;2023-07-31T00:47:15;94694.81;;;23.72;100.00
12626;BME280;6378;42.684;23.372;2023-07-31T00:49:40;94702.09;;;23.79;100.00
12626;BME280;6378;42.684;23.372;2023-07-31T00:52:06;94703.59;;;23.80;100.00
12626;BME280;6378;42.684;23.372;2023-07-31T00:54:32;94688.56;;;23.85;100.00
12626;BME280;6378;42.684;23.372;2023-07-31T00:56:57;94669.63;;;23.87;100.00
12626;BME280;6378;42.684;23.372;2023-07-31T00:59:23;94682.56;;;23.61;100.00
12626;BME280;6378;42.684;23.372;2023-07-31T01:01:50;94701.75;;;23.90;100.00
12626;BME280;6378;42.684;23.372;2023-07-31T01:04:17;94669.53;;;23.65;100.00
12626;BME280;6378;42.684;23.372;2023-07-31T01:09:43;94687.88;;;23.81;100.00
12626;BME280;6378;42.684;23.372;2023-07-31T01:12:14;94688.88;;;23.87;100.00
12626;BME280;6378;42.684;23.372;2023-07-31T01:14:39;94690.75;;;23.90;100.00
12626;BME280;6378;42.684;23.372;2023-07-31T01:17:05;94680.28;;;23.59;100.00
12626;BME280;6378;42.684;23.372;2023-07-31T01:19:30;94687.75;;;23.59;100.00
12626;BME280;6378;42.684;23.372;2023-07-31T01:27:35;94655.59;;;23.85;100.00
12626;BME280;6378;42.684;23.372;2023-07-31T01:30:09;94679.75;;;23.77;100.00
12626;BME280;6378;42.684;23.372;2023-07-31T01:32:40;94677.22;;;23.70;100.00
12626;BME280;6378;42.684;23.372;2023-07-31T01:35:07;94667.72;;;23.46;100.00
12626;BME280;6378;42.684;23.372;2023-07-31T01:37:33;94669.97;;;23.89;100.00
12626;BME280;6378;42.684;23.372;2023-07-31T01:39:59;94662.91;;;23.75;100.00
12626;BME280;6378;42.684;23.372;2023-07-31T01:42:24;94676.22;;;23.77;100.00
12626;BME280;6378;42.684;23.372;2023-07-31T01:44:50;94670.06;;;23.85;100.00
12626;BME280;6378;42.684;23.372;2023-07-31T01:47:15;94670.50;;;23.58;100.00
12626;BME280;6378;42.684;23.372;2023-07-31T01:49:41;94672.78;;;23.47;100.00
12626;BME280;6378;42.684;23.372;2023-07-31T01:52:06;94670.16;;;23.15;100.00
12626;BME280;6378;42.684;23.372;2023-07-31T01:54:32;94675.09;;;23.49;100.00
12626;BME280;6378;42.684;23.372;2023-07-31T01:56:58;94680.16;;;23.21;100.00
12626;BME280;6378;42.684;23.372;2023-07-31T01:59:23;94694.34;;;23.20;100.00
12626;BME280;6378;42.684;23.372;2023-07-31T02:01:49;94694.81;;;23.31;100.00
12626;BME280;6378;42.684;23.372;2023-07-31T02:04:14;94693.91;;;23.50;100.00
12626;BME280;6378;42.684;23.372;2023-07-31T02:06:40;94704.53;;;23.48;100.00
12626;BME280;6378;42.684;23.372;2023-07-31T02:09:05;94697.00;;;23.90;100.00
12626;BME280;6378;42.684;23.372;2023-07-31T02:11:30;94696.91;;;23.81;100.00
12626;BME280;6378;42.684;23.372;2023-07-31T02:13:56;94696.13;;;23.68;100.00
12626;BME280;6378;42.684;23.372;2023-07-31T02:16:21;94705.03;;;23.59;100.00
12626;BME280;6378;42.684;23.372;2023-07-31T02:18:47;94706.66;;;23.57;100.00
12626;BME280;6378;42.684;23.372;2023-07-31T02:21:12;94717.06;;;23.20;100.00
12626;BME280;6378;42.684;23.372;2023-07-31T02:23:37;94699.44;;;23.05;100.00
12626;BME280;6378;42.684;23.372;2023-07-31T02:26:03;94725.00;;;23.02;100.00
12626;BME280;6378;42.684;23.372;2023-07-31T02:28:29;94708.34;;;23.09;100.00
12626;BME280;6378;42.684;23.372;2023-07-31T02:30:54;94707.22;;;23.07;100.00
12626;BME280;6378;42.684;23.372;2023-07-31T02:33:19;94714.28;;;23.08;100.00
12626;BME280;6378;42.684;23.372;2023-07-31T02:35:45;94691.09;;;23.09;100.00
12626;BME280;6378;42.684;23.372;2023-07-31T02:38:10;94702.09;;;23.09;100.00
12626;BME280;6378;42.684;23.372;2023-07-31T02:40:36;94698.53;;;23.37;100.00
12626;BME280;6378;42.684;23.372;2023-07-31T02:43:01;94697.66;;;23.69;100.00
12626;BME280;6378;42.684;23.372;2023-07-31T02:45:27;94696.00;;;23.71;100.00
12626;BME280;6378;42.684;23.372;2023-07-31T02:47:52;94705.78;;;23.60;100.00
12626;BME280;6378;42.684;23.372;2023-07-31T02:50:18;94688.97;;;23.58;100.00
12626;BME280;6378;42.684;23.372;2023-07-31T02:52:43;94680.97;;;23.35;100.00
12626;BME280;6378;42.684;23.372;2023-07-31T02:55:08;94717.88;;;23.62;100.00
12626;BME280;6378;42.684;23.372;2023-07-31T02:57:34;94721.47;;;23.47;100.00
12626;BME280;6378;42.684;23.372;2023-07-31T02:59:59;94721.19;;;23.41;100.00
12626;BME280;6378;42.684;23.372;2023-07-31T03:02:24;94727.97;;;23.24;100.00
12626;BME280;6378;42.684;23.372;2023-07-31T03:04:50;94726.44;;;23.07;100.00
12626;BME280;6378;42.684;23.372;2023-07-31T03:07:15;94738.81;;;22.99;100.00
12626;BME280;6378;42.684;23.372;2023-07-31T03:09:41;94731.94;;;23.07;100.00
12626;BME280;6378;42.684;23.372;2023-07-31T03:12:07;94724.16;;;23.05;100.00
12626;BME280;6378;42.684;23.372;2023-07-31T03:14:32;94707.66;;;22.76;100.00
12626;BME280;6378;42.684;23.372;2023-07-31T03:16:58;94729.91;;;22.95;100.00
12626;BME280;6378;42.684;23.372;2023-07-31T03:19:24;94740.66;;;23.18;100.00
12626;BME280;6378;42.684;23.372;2023-07-31T03:21:49;94707.63;;;22.93;100.00
12626;BME280;6378;42.684;23.372;2023-07-31T03:24:15;94707.19;;;22.94;100.00
12626;BME280;6378;42.684;23.372;2023-07-31T03:26:40;94744.09;;;23.22;100.00
12626;BME280;6378;42.684;23.372;2023-07-31T03:29:07;94736.56;;;23.55;100.00
12626;BME280;6378;42.684;23.372;2023-07-31T03:31:32;94737.66;;;23.41;100.00
12626;BME280;6378;42.684;23.372;2023-07-31T03:33:58;94740.53;;;23.66;100.00
12626;BME280;6378;42.684;23.372;2023-07-31T03:36:23;94741.28;;;23.67;100.00
12626;BME280;6378;42.684;23.372;2023-07-31T03:38:48;94740.53;;;23.66;100.00
12626;BME280;6378;42.684;23.372;2023-07-31T03:41:14;94741.53;;;23.72;100.00
12626;BME280;6378;42.684;23.372;2023-07-31T03:43:39;94732.09;;;23.86;100.00
12626;BME280;6378;42.684;23.372;2023-07-31T03:46:05;94736.19;;;23.94;100.00
12626;BME280;6378;42.684;23.372;2023-07-31T03:48:30;94742.34;;;23.98;100.00
12626;BME280;6378;42.684;23.372;2023-07-31T03:50:56;94739.97;;;23.71;100.00
12626;BME280;6378;42.684;23.372;2023-07-31T03:53:21;94725.88;;;23.57;100.00
12626;BME280;6378;42.684;23.372;2023-07-31T03:55:46;94753.28;;;23.44;100.00
12626;BME280;6378;42.684;23.372;2023-07-31T03:58:12;94744.97;;;23.48;100.00
12626;BME280;6378;42.684;23.372;2023-07-31T04:00:37;94742.13;;;23.51;100.00
12626;BME280;6378;42.684;23.372;2023-07-31T04:03:03;94750.84;;;23.33;100.00
12626;BME280;6378;42.684;23.372;2023-07-31T04:05:31;94751.63;;;23.34;100.00
12626;BME280;6378;42.684;23.372;2023-07-31T04:07:56;94724.47;;;23.07;100.00
12626;BME280;6378;42.684;23.372;2023-07-31T04:10:21;94761.00;;;23.20;100.00
12626;BME280;6378;42.684;23.372;2023-07-31T04:12:48;94757.16;;;23.18;100.00
12626;BME280;6378;42.684;23.372;2023-07-31T04:15:13;94765.28;;;23.21;100.00
12626;BME280;6378;42.684;23.372;2023-07-31T04:17:38;94763.31;;;23.22;100.00
12626;BME280;6378;42.684;23.372;2023-07-31T04:20:04;94765.22;;;23.09;100.00
12626;BME280;6378;42.684;23.372;2023-07-31T04:22:30;94776.22;;;23.09;100.00
12626;BME280;6378;42.684;23.372;2023-07-31T04:24:55;94777.56;;;23.17;100.00
12626;BME280;6378;42.684;23.372;2023-07-31T04:27:21;94778.97;;;23.09;100.00
12626;BME280;6378;42.684;23.372;2023-07-31T04:29:46;94765.97;;;22.80;100.00
12626;BME280;6378;42.684;23.372;2023-07-31T04:32:12;94782.25;;;22.87;100.00
12626;BME280;6378;42.684;23.372;2023-07-31T04:34:38;94776.31;;;23.05;100.00
12626;BME280;6378;42.684;23.372;2023-07-31T04:37:03;94776.69;;;22.91;100.00
12626;BME280;6378;42.684;23.372;2023-07-31T04:39:29;94774.78;;;22.88;100.00
12626;BME280;6378;42.684;23.372;2023-07-31T04:41:54;94780.69;;;23.03;100.00
12626;BME280;6378;42.684;23.372;2023-07-31T04:44:19;94781.19;;;22.98;100.00
12626;BME280;6378;42.684;23.372;2023-07-31T04:46:45;94777.69;;;22.97;100.00
12626;BME280;6378;42.684;23.372;2023-07-31T04:49:11;94785.16;;;22.97;100.00
12626;BME280;6378;42.684;23.372;2023-07-31T04:51:37;94761.41;;;22.58;100.00
12626;BME280;6378;42.684;23.372;2023-07-31T04:54:02;94780.78;;;22.83;100.00
12626;BME280;6378;42.684;23.372;2023-07-31T04:56:28;94782.06;;;22.78;100.00
12626;BME280;6378;42.684;23.372;2023-07-31T04:58:53;94774.94;;;22.97;100.00
12626;BME280;6378;42.684;23.372;2023-07-31T05:01:18;94772.31;;;23.22;100.00
12626;BME280;6378;42.684;23.372;2023-07-31T05:03:44;94774.50;;;23.44;100.00
12626;BME280;6378;42.684;23.372;2023-07-31T05:06:09;94764.59;;;23.75;100.00
12626;BME280;6378;42.684;23.372;2023-07-31T05:08:35;94764.69;;;23.59;100.00
12626;BME280;6378;42.684;23.372;2023-07-31T05:11:00;94684.78;;;23.24;100.00
12626;BME280;6378;42.684;23.372;2023-07-31T05:13:25;94753.88;;;23.23;100.00
12626;BME280;6378;42.684;23.372;2023-07-31T05:15:51;94755.03;;;23.67;100.00
12626;BME280;6378;42.684;23.372;2023-07-31T05:18:16;94766.28;;;23.85;100.00
12626;BME280;6378;42.684;23.372;2023-07-31T05:20:41;94763.69;;;23.65;100.00
12626;BME280;6378;42.684;23.372;2023-07-31T05:23:07;94763.88;;;23.87;100.00
12626;BME280;6378;42.684;23.372;2023-07-31T05:25:32;94752.13;;;23.99;100.00
12626;BME280;6378;42.684;23.372;2023-07-31T05:27:58;94751.25;;;24.15;100.00
12626;BME280;6378;42.684;23.372;2023-07-31T05:30:23;94755.47;;;24.32;100.00
12626;BME280;6378;42.684;23.372;2023-07-31T05:32:48;94755.41;;;24.83;100.00
12626;BME280;6378;42.684;23.372;2023-07-31T05:35:14;94737.13;;;25.23;100.00
12626;BME280;6378;42.684;23.372;2023-07-31T05:37:39;94748.84;;;25.15;100.00
12626;BME280;6378;42.684;23.372;2023-07-31T05:40:05;94744.63;;;25.23;100.00
12626;BME280;6378;42.684;23.372;2023-07-31T05:42:31;94748.03;;;24.92;100.00
12626;BME280;6378;42.684;23.372;2023-07-31T05:44:56;94753.47;;;24.71;100.00
12626;BME280;6378;42.684;23.372;2023-07-31T05:47:21;94762.78;;;24.86;100.00
12626;BME280;6378;42.684;23.372;2023-07-31T05:49:48;94761.22;;;25.32;100.00
12626;BME280;6378;42.684;23.372;2023-07-31T05:52:14;94745.88;;;25.43;100.00
12626;BME280;6378;42.684;23.372;2023-07-31T05:54:41;94751.59;;;25.49;100.00
12626;BME280;6378;42.684;23.372;2023-07-31T05:57:06;94758.94;;;25.65;100.00
12626;BME280;6378;42.684;23.372;2023-07-31T05:59:32;94761.91;;;25.01;100.00
12626;BME280;6378;42.684;23.372;2023-07-31T06:01:58;94768.09;;;24.55;100.00
12626;BME280;6378;42.684;23.372;2023-07-31T06:04:24;94761.94;;;24.64;100.00
12626;BME280;6378;42.684;23.372;2023-07-31T06:06:51;94770.41;;;24.44;100.00
12626;BME280;6378;42.684;23.372;2023-07-31T06:09:16;94775.03;;;24.59;100.00
12626;BME280;6378;42.684;23.372;2023-07-31T06:11:41;94763.94;;;24.50;100.00
12626;BME280;6378;42.684;23.372;2023-07-31T06:14:07;94765.47;;;24.64;100.00
12626;BME280;6378;42.684;23.372;2023-07-31T06:16:32;94770.94;;;24.89;100.00
12626;BME280;6378;42.684;23.372;2023-07-31T06:18:57;94757.72;;;24.84;100.00
12626;BME280;6378;42.684;23.372;2023-07-31T06:21:23;94770.53;;;24.91;100.00
12626;BME280;6378;42.684;23.372;2023-07-31T06:23:48;94763.56;;;24.86;100.00
12626;BME280;6378;42.684;23.372;2023-07-31T06:26:14;94748.44;;;25.03;100.00
12626;BME280;6378;42.684;23.372;2023-07-31T06:28:39;94767.25;;;25.74;100.00
12626;BME280;6378;42.684;23.372;2023-07-31T06:31:05;94767.50;;;26.19;100.00
12626;BME280;6378;42.684;23.372;2023-07-31T06:33:30;94770.53;;;26.83;100.00
12626;BME280;6378;42.684;23.372;2023-07-31T06:35:56;94741.94;;;27.26;100.00
12626;BME280;6378;42.684;23.372;2023-07-31T06:38:25;94768.94;;;27.22;100.00
12626;BME280;6378;42.684;23.372;2023-07-31T06:40:51;94762.69;;;26.72;100.00
12626;BME280;6378;42.684;23.372;2023-07-31T06:43:16;94771.09;;;26.69;100.00
12626;BME280;6378;42.684;23.372;2023-07-31T06:45:42;94766.03;;;27.26;100.00
12626;BME280;6378;42.684;23.372;2023-07-31T06:48:07;94769.69;;;27.95;94.81
12626;BME280;6378;42.684;23.372;2023-07-31T06:50:33;94774.44;;;28.22;91.38
12626;BME280;6378;42.684;23.372;2023-07-31T06:52:58;94746.06;;;28.36;87.79
12626;BME280;6378;42.684;23.372;2023-07-31T06:55:26;94771.31;;;28.38;88.80
12626;BME280;6378;42.684;23.372;2023-07-31T06:57:53;94779.41;;;27.64;93.00
12626;BME280;6378;42.684;23.372;2023-07-31T07:00:20;94777.28;;;27.58;94.52
12626;BME280;6378;42.684;23.372;2023-07-31T07:02:46;94758.31;;;27.93;91.88
12626;BME280;6378;42.684;23.372;2023-07-31T07:05:16;94757.44;;;27.78;91.72
12626;BME280;6378;42.684;23.372;2023-07-31T07:07:42;94754.97;;;27.17;95.54
12626;BME280;6378;42.684;23.372;2023-07-31T07:10:08;94782.03;;;27.58;93.95
12626;BME280;6378;42.684;23.372;2023-07-31T07:12:34;94768.03;;;27.52;90.84
12626;BME280;6378;42.684;23.372;2023-07-31T07:15:00;94765.72;;;27.87;90.71
12626;BME280;6378;42.684;23.372;2023-07-31T07:17:27;94757.84;;;28.04;88.86
12626;BME280;6378;42.684;23.372;2023-07-31T07:19:53;94764.03;;;27.90;88.19
12626;BME280;6378;42.684;23.372;2023-07-31T07:22:18;94748.50;;;27.47;92.32
12626;BME280;6378;42.684;23.372;2023-07-31T07:24:43;94772.94;;;27.67;89.19
12626;BME280;6378;42.684;23.372;2023-07-31T07:27:09;94768.59;;;28.11;87.29
12626;BME280;6378;42.684;23.372;2023-07-31T07:29:34;94784.44;;;27.92;85.12
12626;BME280;6378;42.684;23.372;2023-07-31T07:32:00;94782.16;;;27.73;87.25
12626;BME280;6378;42.684;23.372;2023-07-31T07:34:26;94763.72;;;27.88;86.66
12626;BME280;6378;42.684;23.372;2023-07-31T07:36:52;94779.53;;;28.15;85.97
12626;BME280;6378;42.684;23.372;2023-07-31T07:39:17;94753.00;;;28.32;81.96
12626;BME280;6378;42.684;23.372;2023-07-31T07:41:43;94772.91;;;28.96;80.48
12626;BME280;6378;42.684;23.372;2023-07-31T07:44:08;94759.09;;;29.11;76.70
12626;BME280;6378;42.684;23.372;2023-07-31T07:46:34;94774.78;;;29.14;76.09
12626;BME280;6378;42.684;23.372;2023-07-31T07:48:59;94780.66;;;29.40;74.73
12626;BME280;6378;42.684;23.372;2023-07-31T07:51:25;94759.31;;;28.74;74.36
12626;BME280;6378;42.684;23.372;2023-07-31T07:53:50;94763.19;;;28.26;79.65
12626;BME280;6378;42.684;23.372;2023-07-31T07:56:15;94772.75;;;28.07;81.69
12626;BME280;6378;42.684;23.372;2023-07-31T07:58:41;94788.47;;;27.73;84.13
12626;BME280;6378;42.684;23.372;2023-07-31T08:01:06;94790.31;;;27.49;85.53
12626;BME280;6378;42.684;23.372;2023-07-31T08:03:32;94791.72;;;27.53;83.51
12626;BME280;6378;42.684;23.372;2023-07-31T08:06:01;94788.91;;;27.81;80.72
12626;BME280;6378;42.684;23.372;2023-07-31T08:08:27;94784.28;;;28.05;79.09
12626;BME280;6378;42.684;23.372;2023-07-31T08:10:53;94787.59;;;28.36;76.34
12626;BME280;6378;42.684;23.372;2023-07-31T08:13:18;94785.34;;;28.08;78.96
12626;BME280;6378;42.684;23.372;2023-07-31T08:15:43;94789.84;;;28.56;78.42
12626;BME280;6378;42.684;23.372;2023-07-31T08:18:09;94782.25;;;28.99;72.87
12626;BME280;6378;42.684;23.372;2023-07-31T08:20:35;94781.22;;;28.96;71.18
12626;BME280;6378;42.684;23.372;2023-07-31T08:23:00;94775.91;;;29.07;72.31
12626;BME280;6378;42.684;23.372;2023-07-31T08:25:26;94780.03;;;29.12;67.84
12626;BME280;6378;42.684;23.372;2023-07-31T08:27:51;94756.34;;;28.87;66.26
12626;BME280;6378;42.684;23.372;2023-07-31T08:30:18;94776.66;;;28.42;67.07
12626;BME280;6378;42.684;23.372;2023-07-31T08:32:44;94789.38;;;27.88;74.00
12626;BME280;6378;42.684;23.372;2023-07-31T08:35:09;94784.69;;;28.31;71.35
12626;BME280;6378;42.684;23.372;2023-07-31T08:37:35;94771.53;;;28.59;67.59
12626;BME280;6378;42.684;23.372;2023-07-31T08:40:00;94762.09;;;28.32;68.69
12626;BME280;6378;42.684;23.372;2023-07-31T08:42:26;94771.50;;;28.08;71.71
12626;BME280;6378;42.684;23.372;2023-07-31T08:44:52;94749.19;;;28.29;70.10
12626;BME280;6378;42.684;23.372;2023-07-31T08:47:19;94775.94;;;28.74;66.52
12626;BME280;6378;42.684;23.372;2023-07-31T08:49:46;94776.38;;;29.06;66.25
12626;BME280;6378;42.684;23.372;2023-07-31T08:52:12;94767.69;;;28.89;62.78
12626;BME280;6378;42.684;23.372;2023-07-31T08:54:38;94772.13;;;28.96;61.31
12626;BME280;6378;42.684;23.372;2023-07-31T08:57:04;94761.09;;;28.87;61.73
12626;BME280;6378;42.684;23.372;2023-07-31T08:59:31;94782.69;;;28.31;66.55
12626;BME280;6378;42.684;23.372;2023-07-31T09:02:03;94783.44;;;28.41;64.28
12626;BME280;6378;42.684;23.372;2023-07-31T09:04:30;94771.34;;;28.20;65.48
12626;BME280;6378;42.684;23.372;2023-07-31T09:07:00;94772.25;;;28.26;66.58
12626;BME280;6378;42.684;23.372;2023-07-31T09:09:26;94769.69;;;28.56;64.45
12626;BME280;6378;42.684;23.372;2023-07-31T09:11:52;94759.97;;;28.93;61.86
12626;BME280;6378;42.684;23.372;2023-07-31T09:14:18;94762.97;;;28.80;58.98
12626;BME280;6378;42.684;23.372;2023-07-31T09:16:57;94773.56;;;28.49;63.87
12626;BME280;6378;42.684;23.372;2023-07-31T09:19:35;94766.84;;;28.32;66.20
12626;BME280;6378;42.684;23.372;2023-07-31T09:22:05;94765.75;;;28.80;65.80
12626;BME280;6378;42.684;23.372;2023-07-31T09:24:32;94762.53;;;29.06;60.49
12626;BME280;6378;42.684;23.372;2023-07-31T09:26:59;94739.22;;;28.89;61.26
12626;BME280;6378;42.684;23.372;2023-07-31T09:29:26;94754.47;;;28.84;61.20
12626;BME280;6378;42.684;23.372;2023-07-31T09:31:52;94737.47;;;28.67;62.23
12626;BME280;6378;42.684;23.372;2023-07-31T09:34:18;94749.31;;;29.01;62.80
12626;BME280;6378;42.684;23.372;2023-07-31T09:36:46;94758.06;;;29.23;62.31
12626;BME280;6378;42.684;23.372;2023-07-31T09:39:12;94746.63;;;29.54;60.21
12626;BME280;6378;42.684;23.372;2023-07-31T09:41:39;94749.34;;;29.78;59.81
12626;BME280;6378;42.684;23.372;2023-07-31T09:44:05;94760.88;;;30.29;56.36
12626;BME280;6378;42.684;23.372;2023-07-31T09:46:31;94756.25;;;30.26;53.69
12626;BME280;6378;42.684;23.372;2023-07-31T09:49:10;94743.69;;;29.87;57.27
12626;BME280;6378;42.684;23.372;2023-07-31T09:51:37;94740.16;;;29.33;57.34
12626;BME280;6378;42.684;23.372;2023-07-31T09:54:12;94739.56;;;29.29;58.75
12626;BME280;6378;42.684;23.372;2023-07-31T09:56:45;94743.75;;;29.48;59.54
12626;BME280;6378;42.684;23.372;2023-07-31T09:59:13;94735.56;;;29.83;55.86
12626;BME280;6378;42.684;23.372;2023-07-31T10:01:40;94733.03;;;29.41;58.18
12626;BME280;6378;42.684;23.372;2023-07-31T10:04:07;94744.94;;;29.09;59.53
12626;BME280;6378;42.684;23.372;2023-07-31T10:06:34;94730.53;;;29.19;56.86
12626;BME280;6378;42.684;23.372;2023-07-31T10:09:00;94723.66;;;29.53;53.68
12626;BME280;6378;42.684;23.372;2023-07-31T10:11:27;94736.56;;;29.95;53.48
12626;BME280;6378;42.684;23.372;2023-07-31T10:13:54;94720.09;;;29.91;55.95
12626;BME280;6378;42.684;23.372;2023-07-31T10:16:21;94733.13;;;29.23;54.12
12626;BME280;6378;42.684;23.372;2023-07-31T10:18:47;94735.50;;;29.15;56.64
12626;BME280;6378;42.684;23.372;2023-07-31T10:21:14;94739.28;;;29.51;55.55
12626;BME280;6378;42.684;23.372;2023-07-31T10:23:40;94730.78;;;29.69;54.62
12626;BME280;6378;42.684;23.372;2023-07-31T10:26:08;94726.88;;;29.76;55.74
12626;BME280;6378;42.684;23.372;2023-07-31T10:28:36;94710.72;;;30.03;53.33
12626;BME280;6378;42.684;23.372;2023-07-31T10:31:03;94727.44;;;30.38;49.92
12626;BME280;6378;42.684;23.372;2023-07-31T10:33:28;94726.56;;;30.62;50.09
12626;BME280;6378;42.684;23.372;2023-07-31T10:36:19;94724.75;;;29.70;49.29
12626;BME280;6378;42.684;23.372;2023-07-31T10:38:46;94727.34;;;29.74;49.86
12626;BME280;6378;42.684;23.372;2023-07-31T10:41:13;94703.53;;;29.97;47.88
12626;BME280;6378;42.684;23.372;2023-07-31T10:43:39;94711.84;;;30.11;48.19
12626;BME280;6378;42.684;23.372;2023-07-31T10:46:09;94720.13;;;29.53;48.69
12626;BME280;6378;42.684;23.372;2023-07-31T10:48:37;94690.03;;;29.22;48.49
12626;BME280;6378;42.684;23.372;2023-07-31T10:51:07;94712.13;;;29.69;50.18
12626;BME280;6378;42.684;23.372;2023-07-31T10:53:34;94711.97;;;30.02;48.96
12626;BME280;6378;42.684;23.372;2023-07-31T10:56:07;94705.75;;;29.93;47.14
12626;BME280;6378;42.684;23.372;2023-07-31T10:58:33;94705.72;;;29.63;48.86
12626;BME280;6378;42.684;23.372;2023-07-31T11:01:00;94700.44;;;29.12;50.87
12626;BME280;6378;42.684;23.372;2023-07-31T11:03:27;94700.91;;;29.11;51.27
12626;BME280;6378;42.684;23.372;2023-07-31T11:05:53;94700.81;;;29.58;49.83
12626;BME280;6378;42.684;23.372;2023-07-31T11:08:31;94697.59;;;29.60;50.05
12626;BME280;6378;42.684;23.372;2023-07-31T11:13:31;94694.69;;;29.54;47.95
12626;BME280;6378;42.684;23.372;2023-07-31T11:15:57;94682.06;;;29.53;48.33
12626;BME280;6378;42.684;23.372;2023-07-31T11:18:23;94691.94;;;29.84;47.61
12626;BME280;6378;42.684;23.372;2023-07-31T11:20:48;94690.34;;;29.92;46.49
12626;BME280;6378;42.684;23.372;2023-07-31T11:23:17;94689.72;;;29.88;46.92
12626;BME280;6378;42.684;23.372;2023-07-31T11:25:43;94685.63;;;29.68;47.45
12626;BME280;6378;42.684;23.372;2023-07-31T11:28:14;94664.09;;;29.63;45.96
12626;BME280;6378;42.684;23.372;2023-07-31T11:30:40;94693.59;;;30.20;47.12
12626;BME280;6378;42.684;23.372;2023-07-31T11:33:07;94682.59;;;30.45;43.35
12626;BME280;6378;42.684;23.372;2023-07-31T11:35:35;94689.16;;;30.28;43.56
12626;BME280;6378;42.684;23.372;2023-07-31T11:38:02;94692.50;;;29.73;44.58
12626;BME280;6378;42.684;23.372;2023-07-31T11:40:28;94687.72;;;29.20;44.76
12626;BME280;6378;42.684;23.372;2023-07-31T11:42:58;94682.47;;;29.46;44.88
12626;BME280;6378;42.684;23.372;2023-07-31T11:45:27;94672.88;;;29.47;44.39
12626;BME280;6378;42.684;23.372;2023-07-31T11:47:56;94678.69;;;29.35;45.94
12626;BME280;6378;42.684;23.372;2023-07-31T11:50:23;94689.44;;;29.18;47.70
12626;BME280;6378;42.684;23.372;2023-07-31T11:52:53;94678.69;;;29.35;49.00
12626;BME280;6378;42.684;23.372;2023-07-31T11:55:20;94680.84;;;29.69;47.37
12626;BME280;6378;42.684;23.372;2023-07-31T11:57:46;94676.94;;;30.05;46.91
12626;BME280;6378;42.684;23.372;2023-07-31T12:00:13;94680.06;;;30.12;45.16
12626;BME280;6378;42.684;23.372;2023-07-31T12:02:39;94648.13;;;29.73;45.15
12626;BME280;6378;42.684;23.372;2023-07-31T12:05:06;94681.81;;;29.51;45.91
12626;BME280;6378;42.684;23.372;2023-07-31T12:07:52;94668.56;;;29.32;45.88
12626;BME280;6378;42.684;23.372;2023-07-31T12:10:31;94671.38;;;29.22;46.87
12626;BME280;6378;42.684;23.372;2023-07-31T12:13:04;94670.31;;;29.58;47.85
12626;BME280;6378;42.684;23.372;2023-07-31T12:15:42;94667.28;;;29.71;46.43
12626;BME280;6378;42.684;23.372;2023-07-31T12:18:10;94665.09;;;29.90;47.24
12626;BME280;6378;42.684;23.372;2023-07-31T12:20:35;94657.22;;;30.03;46.52
12626;BME280;6378;42.684;23.372;2023-07-31T12:23:05;94665.53;;;30.18;46.35
12626;BME280;6378;42.684;23.372;2023-07-31T12:25:32;94657.31;;;29.79;46.95
12626;BME280;6378;42.684;23.372;2023-07-31T12:27:58;94657.22;;;29.74;47.19
12626;BME280;6378;42.684;23.372;2023-07-31T12:30:32;94652.72;;;29.61;47.64
12626;BME280;6378;42.684;23.372;2023-07-31T12:32:57;94632.81;;;29.34;47.34
12626;BME280;6378;42.684;23.372;2023-07-31T12:35:34;94645.44;;;29.49;48.44
12626;BME280;6378;42.684;23.372;2023-07-31T12:38:03;94649.25;;;29.81;47.13
12626;BME280;6378;42.684;23.372;2023-07-31T12:40:28;94641.25;;;29.54;46.72
12626;BME280;6378;42.684;23.372;2023-07-31T12:42:54;94653.50;;;29.23;47.06
12626;BME280;6378;42.684;23.372;2023-07-31T12:45:19;94652.72;;;29.32;48.46
12626;BME280;6378;42.684;23.372;2023-07-31T12:47:46;94640.94;;;29.66;47.76
12626;BME280;6378;42.684;23.372;2023-07-31T12:50:11;94652.72;;;29.76;46.73
12626;BME280;6378;42.684;23.372;2023-07-31T12:52:37;94635.88;;;29.50;46.08
12626;BME280;6378;42.684;23.372;2023-07-31T12:55:02;94631.31;;;29.23;48.00
12626;BME280;6378;42.684;23.372;2023-07-31T12:57:28;94643.50;;;29.26;47.22
12626;BME280;6378;42.684;23.372;2023-07-31T12:59:53;94641.47;;;29.12;48.38
12626;BME280;6378;42.684;23.372;2023-07-31T13:02:18;94622.56;;;28.87;50.81